Time;durP1;ratioP1;P1;durP2;ratioP2;P2;SDS_P1;SDS_P2;PMS_P1;PMS_P2;Temp;Humidity;BMP_temperature;BMP_pressure;BME280_temperature;BME280_humidity;BME280_pressure;Samples;Min_cycle;Max_cycle;Signal;HPM_P1;HPM_P2
2022/10/27 00:02:13;;;;;;;4.03;3.07;;;;;;;13.30;nan;100205.19;4913546;29;20220;-78
2022/10/27 00:04:38;;;;;;;6.70;3.73;;;;;;;13.28;nan;100214.97;4908999;29;20656;-77
2022/10/27 00:07:04;;;;;;;14.13;4.03;;;;;;;13.26;nan;100201.91;4910614;29;20274;-78
2022/10/27 00:09:29;;;;;;;4.63;3.23;;;;;;;13.25;nan;100204.59;4913357;29;20214;-78
2022/10/27 00:11:55;;;;;;;4.90;3.43;;;;;;;13.23;nan;100196.81;4915522;29;20297;-77
2022/10/27 00:14:21;;;;;;;5.53;4.20;;;;;;;13.22;nan;100195.09;4914259;29;20279;-78
2022/10/27 00:16:54;;;;;;;4.93;3.10;;;;;;;13.21;nan;100193.41;4912060;29;20445;-78
2022/10/27 00:19:21;;;;;;;5.57;3.92;;;;;;;13.20;nan;100204.88;4910098;29;20439;-78
2022/10/27 00:21:46;;;;;;;5.63;4.05;;;;;;;13.20;nan;100196.97;4908340;29;20282;-77
2022/10/27 00:24:12;;;;;;;9.07;2.93;;;;;;;13.21;nan;100190.78;4910287;29;20285;-78
2022/10/27 00:26:37;;;;;;;5.47;2.53;;;;;;;13.22;nan;100194.25;4911444;29;20313;-78
2022/10/27 00:29:03;;;;;;;8.33;2.30;;;;;;;13.21;nan;100192.56;4912835;29;20276;-77
2022/10/27 00:31:28;;;;;;;3.47;2.13;;;;;;;13.16;nan;100194.66;4911497;29;20581;-78
2022/10/27 00:33:54;;;;;;;1.50;1.37;;;;;;;13.07;nan;100191.69;4906476;29;20225;-78
2022/10/27 00:36:23;;;;;;;2.40;1.43;;;;;;;12.99;nan;100198.41;4909184;29;20664;-78
2022/10/27 00:38:52;;;;;;;1.92;1.10;;;;;;;12.90;nan;100199.81;4911077;29;20250;-77
2022/10/27 00:41:29;;;;;;;3.33;1.88;;;;;;;12.78;nan;100196.16;4907014;29;20220;-78
2022/10/27 00:43:55;;;;;;;4.50;2.72;;;;;;;12.70;nan;100202.88;4912809;29;20695;-77
2022/10/27 00:46:36;;;;;;;3.97;1.73;;;;;;;12.60;nan;100211.34;4906624;29;20210;-79
2022/10/27 00:49:11;;;;;;;2.20;1.65;;;;;;;12.54;nan;100211.72;4908200;29;20591;-78
2022/10/27 00:51:43;;;;;;;4.20;2.30;;;;;;;12.49;nan;100211.16;4907427;29;20706;-78
2022/10/27 00:54:09;;;;;;;3.78;2.30;;;;;;;12.46;nan;100215.78;4906326;29;20218;-78
2022/10/27 00:56:35;;;;;;;2.85;2.15;;;;;;;12.46;nan;100211.38;4909237;29;21034;-77
2022/10/27 00:59:01;;;;;;;3.72;1.88;;;;;;;12.47;nan;100220.94;4908035;29;20246;-78
2022/10/27 01:01:27;;;;;;;3.67;2.13;;;;;;;12.48;nan;100217.38;4914081;29;20218;-78
2022/10/27 01:03:53;;;;;;;3.10;2.20;;;;;;;12.50;nan;100218.16;4911486;29;20241;-78
2022/10/27 01:06:19;;;;;;;3.33;2.70;;;;;;;12.51;nan;100225.09;4919553;29;20518;-78
2022/10/27 01:08:45;;;;;;;5.57;4.23;;;;;;;12.52;nan;100220.66;4908293;29;20222;-78
2022/10/27 01:11:11;;;;;;;2.33;1.90;;;;;;;12.51;nan;100209.28;4913482;29;20640;-79
2022/10/27 01:13:37;;;;;;;3.97;2.60;;;;;;;12.53;nan;100207.41;4922159;29;20294;-79
2022/10/27 01:16:08;;;;;;;3.93;3.60;;;;;;;12.55;nan;100209.94;4917479;29;20190;-79
2022/10/27 01:18:54;;;;;;;3.72;2.42;;;;;;;12.55;nan;100218.69;4914677;29;20457;-79
2022/10/27 01:21:19;;;;;;;2.65;2.45;;;;;;;12.54;nan;100219.63;4913316;29;20211;-78
2022/10/27 01:23:57;;;;;;;2.87;2.03;;;;;;;12.53;nan;100217.94;4907971;29;20250;-78
2022/10/27 01:26:40;;;;;;;4.35;3.85;;;;;;;12.47;nan;100223.59;4916068;29;20260;-78
2022/10/27 01:29:33;;;;;;;6.35;2.85;;;;;;;12.42;nan;100217.75;4921220;29;20228;-78
2022/10/27 01:32:15;;;;;;;11.40;3.13;;;;;;;12.39;nan;100223.22;4910926;29;20214;-79
2022/10/27 01:34:58;;;;;;;8.25;3.55;;;;;;;12.43;nan;100222.09;4905452;29;20962;-79
2022/10/27 01:37:35;;;;;;;3.95;2.50;;;;;;;12.42;nan;100219.53;4914215;29;21257;-77
2022/10/27 01:40:06;;;;;;;4.53;2.42;;;;;;;12.40;nan;100227.56;4921054;29;20205;-77
2022/10/27 01:42:48;;;;;;;5.85;2.90;;;;;;;12.38;nan;100226.78;4912151;29;20289;-78
2022/10/27 01:45:19;;;;;;;4.28;2.88;;;;;;;12.35;nan;100229.63;4912897;29;20281;-79
2022/10/27 01:47:45;;;;;;;5.43;3.45;;;;;;;12.33;nan;100240.22;4915163;29;20268;-78
2022/10/27 01:50:10;;;;;;;3.70;3.15;;;;;;;12.35;nan;100226.97;4909750;29;20195;-79
2022/10/27 01:52:38;;;;;;;5.73;3.10;;;;;;;12.36;nan;100233.94;4904619;29;20207;-78
2022/10/27 01:55:05;;;;;;;4.10;3.00;;;;;;;12.31;nan;100234.25;4912138;29;20664;-78
2022/10/27 01:57:44;;;;;;;7.63;4.50;;;;;;;12.27;nan;100231.88;4914599;29;20616;-79
2022/10/27 02:00:09;;;;;;;5.13;4.18;;;;;;;12.24;nan;100222.38;4912449;29;20190;-78
2022/10/27 02:02:42;;;;;;;6.03;3.53;;;;;;;12.25;nan;100231.13;4914908;29;20732;-79
2022/10/27 02:05:20;;;;;;;5.65;2.92;;;;;;;12.26;nan;100232.78;4915172;29;20200;-78
2022/10/27 02:08:04;;;;;;;4.75;4.10;;;;;;;12.19;nan;100242.88;4914044;29;20218;-79
2022/10/27 02:11:01;;;;;;;6.15;5.15;;;;;;;12.06;nan;100240.13;4909518;29;20649;-79
2022/10/27 02:13:29;;;;;;;5.38;4.65;;;;;;;11.99;nan;100241.44;4903949;29;20211;-79
2022/10/27 02:16:00;;;;;;;8.65;5.15;;;;;;;11.94;nan;100233.81;4904758;29;20552;-78
2022/10/27 02:18:50;;;;;;;7.43;4.97;;;;;;;11.90;nan;100231.44;4909379;29;20205;-80
2022/10/27 02:21:19;;;;;;;7.20;4.53;;;;;;;11.90;nan;100234.06;4907833;29;20221;-78
2022/10/27 02:23:44;;;;;;;5.45;4.03;;;;;;;11.90;nan;100234.91;4912579;29;20222;-78
2022/10/27 02:26:10;;;;;;;7.97;4.40;;;;;;;11.90;nan;100228.81;4909390;29;20223;-77
2022/10/27 02:28:42;;;;;;;8.63;4.40;;;;;;;11.91;nan;100225.25;4907275;29;20191;-78
2022/10/27 02:31:09;;;;;;;5.40;3.60;;;;;;;11.90;nan;100221.75;4906506;29;20207;-77
2022/10/27 02:33:35;;;;;;;8.95;4.25;;;;;;;11.90;nan;100223.53;4916509;29;20250;-78
2022/10/27 02:36:00;;;;;;;5.18;4.00;;;;;;;11.93;nan;100239.16;4917545;29;20190;-78
2022/10/27 02:38:26;;;;;;;4.40;4.00;;;;;;;11.95;nan;100238.13;4910260;29;20273;-79
2022/10/27 02:40:51;;;;;;;9.67;4.70;;;;;;;11.98;nan;100226.56;4899710;29;20244;-79
2022/10/27 02:43:17;;;;;;;4.70;3.50;;;;;;;12.00;nan;100229.13;4907355;29;20191;-77
2022/10/27 02:45:42;;;;;;;6.63;4.77;;;;;;;12.01;nan;100231.63;4906096;29;20617;-78
2022/10/27 02:48:07;;;;;;;5.10;3.90;;;;;;;12.02;nan;100235.16;4903354;29;20194;-78
2022/10/27 02:50:33;;;;;;;5.03;3.67;;;;;;;12.04;nan;100235.88;4905630;29;20228;-78
2022/10/27 02:52:58;;;;;;;6.90;4.43;;;;;;;12.00;nan;100242.28;4905222;29;20470;-78
2022/10/27 02:55:24;;;;;;;6.30;2.87;;;;;;;11.93;nan;100245.25;4906485;29;20238;-78
2022/10/27 02:57:49;;;;;;;10.70;3.70;;;;;;;11.89;nan;100238.50;4906577;29;20191;-78
2022/10/27 03:00:15;;;;;;;3.57;3.23;;;;;;;11.87;nan;100237.72;4905173;29;20282;-78
2022/10/27 03:02:41;;;;;;;2.95;2.65;;;;;;;11.86;nan;100237.84;4905865;29;20210;-78
2022/10/27 03:05:06;;;;;;;5.77;2.40;;;;;;;11.82;nan;100241.53;4906259;29;20242;-78
2022/10/27 03:07:31;;;;;;;5.37;2.67;;;;;;;11.76;nan;100247.16;4906816;29;20218;-78
2022/10/27 03:09:57;;;;;;;3.53;3.00;;;;;;;11.70;nan;100238.69;4905379;29;20202;-78
2022/10/27 03:12:22;;;;;;;3.80;2.87;;;;;;;11.65;nan;100246.00;4904187;29;20806;-78
2022/10/27 03:14:48;;;;;;;2.57;2.33;;;;;;;11.61;nan;100243.63;4906556;29;20190;-78
2022/10/27 03:17:13;;;;;;;3.10;2.30;;;;;;;11.60;nan;100232.25;4903122;29;20212;-78
2022/10/27 03:19:39;;;;;;;2.87;2.67;;;;;;;11.60;nan;100231.41;4905979;29;20739;-78
2022/10/27 03:22:04;;;;;;;3.40;3.10;;;;;;;11.55;nan;100231.66;4904656;29;20211;-79
2022/10/27 03:24:30;;;;;;;7.37;3.93;;;;;;;11.49;nan;100234.66;4904334;29;20205;-78
2022/10/27 03:26:55;;;;;;;3.87;3.47;;;;;;;11.44;nan;100236.72;4903394;29;20215;-77
2022/10/27 03:29:21;;;;;;;7.83;3.93;;;;;;;11.40;nan;100238.69;4906180;29;20191;-79
2022/10/27 03:31:47;;;;;;;5.28;4.03;;;;;;;11.38;nan;100237.91;4905417;29;20210;-78
2022/10/27 03:34:12;;;;;;;6.07;3.87;;;;;;;11.34;nan;100244.28;4904357;29;20182;-77
2022/10/27 03:36:38;;;;;;;7.10;3.60;;;;;;;11.36;nan;100245.03;4903432;29;20583;-79
2022/10/27 03:39:04;;;;;;;4.88;4.38;;;;;;;11.40;nan;100246.56;4905334;29;20286;-78
2022/10/27 03:41:29;;;;;;;5.47;4.87;;;;;;;11.44;nan;100244.59;4906246;29;20237;-79
2022/10/27 03:43:54;;;;;;;5.50;3.73;;;;;;;11.46;nan;100246.22;4905486;29;20197;-78
2022/10/27 03:46:20;;;;;;;8.10;4.97;;;;;;;11.49;nan;100245.19;4903775;29;20274;-77
2022/10/27 03:48:45;;;;;;;5.43;3.67;;;;;;;11.49;nan;100240.78;4909350;29;20796;-78
2022/10/27 03:51:11;;;;;;;5.67;4.00;;;;;;;11.50;nan;100242.47;4906923;29;20646;-78
2022/10/27 03:53:36;;;;;;;4.50;4.10;;;;;;;11.54;nan;100244.94;4909103;29;20293;-77
2022/10/27 03:56:02;;;;;;;6.17;3.20;;;;;;;11.55;nan;100244.81;4909938;29;20912;-78
2022/10/27 03:58:28;;;;;;;4.70;3.20;;;;;;;11.57;nan;100248.22;4910037;29;20806;-79
2022/10/27 04:00:53;;;;;;;4.70;3.53;;;;;;;11.52;nan;100245.00;4909810;29;20953;-77
2022/10/27 04:03:19;;;;;;;6.13;3.20;;;;;;;11.45;nan;100248.91;4908619;29;20189;-79
2022/10/27 04:05:48;;;;;;;7.17;3.57;;;;;;;11.39;nan;100246.63;4916585;29;20202;-79
2022/10/27 04:08:13;;;;;;;4.30;3.90;;;;;;;11.33;nan;100249.63;4919631;29;20831;-77
2022/10/27 04:10:39;;;;;;;4.17;2.80;;;;;;;11.28;nan;100258.59;4922252;29;20205;-77
2022/10/27 04:13:04;;;;;;;3.17;2.67;;;;;;;11.27;nan;100254.28;4923125;29;20198;-77
2022/10/27 04:15:29;;;;;;;8.53;3.37;;;;;;;11.26;nan;100241.22;4925578;29;20197;-78
2022/10/27 04:17:57;;;;;;;6.60;4.00;;;;;;;11.22;nan;100248.44;4924761;29;20238;-78
2022/10/27 04:20:24;;;;;;;7.65;4.15;;;;;;;11.20;nan;100246.84;4922883;29;20194;-78
2022/10/27 04:22:49;;;;;;;7.70;3.80;;;;;;;11.22;nan;100242.34;4921164;29;20214;-79
2022/10/27 04:25:15;;;;;;;5.60;3.60;;;;;;;11.22;nan;100237.09;4919270;29;20194;-77
2022/10/27 04:27:41;;;;;;;31.00;6.37;;;;;;;11.24;nan;100245.75;4924253;29;20210;-77
2022/10/27 04:30:07;;;;;;;14.80;4.33;;;;;;;11.26;nan;100239.47;4922787;29;20198;-77
2022/10/27 04:32:32;;;;;;;5.60;4.20;;;;;;;11.29;nan;100231.41;4917581;29;20214;-76
2022/10/27 04:34:57;;;;;;;6.67;5.17;;;;;;;11.32;nan;100237.41;4918165;29;20446;-78
2022/10/27 04:37:23;;;;;;;18.90;5.80;;;;;;;11.32;nan;100235.63;4920772;29;20250;-77
2022/10/27 04:39:48;;;;;;;44.23;10.87;;;;;;;11.33;nan;100239.09;4923060;29;20493;-77
2022/10/27 04:42:14;;;;;;;25.53;5.27;;;;;;;11.33;nan;100239.94;4922935;29;20209;-77
2022/10/27 04:44:39;;;;;;;7.83;4.40;;;;;;;11.34;nan;100233.78;4921710;29;20815;-80
2022/10/27 04:47:04;;;;;;;22.57;5.23;;;;;;;11.33;nan;100239.94;4897809;29;20241;-78
2022/10/27 04:49:30;;;;;;;10.50;5.47;;;;;;;11.32;nan;100245.31;4908336;29;20240;-79
2022/10/27 04:51:55;;;;;;;48.93;8.07;;;;;;;11.26;nan;100244.72;4909023;29;20206;-78
2022/10/27 04:54:20;;;;;;;8.40;4.40;;;;;;;11.21;nan;100246.75;4908653;29;20885;-78
2022/10/27 04:56:46;;;;;;;6.97;4.17;;;;;;;11.19;nan;100242.50;4908102;29;20218;-78
2022/10/27 04:59:11;;;;;;;31.20;8.23;;;;;;;11.17;nan;100241.75;4908943;29;20256;-78
2022/10/27 05:01:37;;;;;;;8.30;4.40;;;;;;;11.16;nan;100235.66;4910079;29;20214;-78
2022/10/27 05:04:03;;;;;;;82.47;12.52;;;;;;;11.14;nan;100239.28;4907507;29;20202;-77
2022/10/27 05:06:29;;;;;;;7.07;4.22;;;;;;;11.07;nan;100229.13;4909089;29;20217;-76
2022/10/27 05:08:55;;;;;;;14.30;4.83;;;;;;;11.02;nan;100236.41;4910018;29;21017;-77
2022/10/27 05:11:20;;;;;;;4.33;4.00;;;;;;;10.96;nan;100228.84;4907590;29;20688;-78
2022/10/27 05:13:50;;;;;;;7.10;3.67;;;;;;;10.94;nan;100236.00;4906873;29;20297;-78
2022/10/27 05:16:16;;;;;;;16.30;4.50;;;;;;;10.95;nan;100240.31;4910988;29;20234;-77
2022/10/27 05:18:42;;;;;;;9.05;4.38;;;;;;;10.96;nan;100246.41;4908901;29;20187;-77
2022/10/27 05:21:08;;;;;;;13.83;5.63;;;;;;;10.99;nan;100246.22;4905999;29;20576;-78
2022/10/27 05:23:33;;;;;;;8.30;4.10;;;;;;;11.01;nan;100242.59;4907177;29;20199;-78
2022/10/27 05:25:59;;;;;;;9.77;5.30;;;;;;;11.02;nan;100240.84;4909988;29;20613;-78
2022/10/27 05:28:24;;;;;;;7.00;5.20;;;;;;;11.03;nan;100242.50;4907655;29;20210;-78
2022/10/27 05:30:54;;;;;;;13.77;5.53;;;;;;;11.04;nan;100246.84;4909638;29;20202;-77
2022/10/27 05:33:19;;;;;;;28.48;6.00;;;;;;;11.05;nan;100245.91;4905315;29;20546;-76
2022/10/27 05:35:45;;;;;;;8.73;4.23;;;;;;;11.06;nan;100247.59;4903010;29;20210;-77
2022/10/27 05:38:11;;;;;;;24.70;6.70;;;;;;;11.05;nan;100248.53;4901111;29;20237;-76
2022/10/27 05:40:36;;;;;;;17.10;5.50;;;;;;;11.05;nan;100253.81;4902533;29;20193;-76
2022/10/27 05:43:02;;;;;;;19.43;6.30;;;;;;;11.05;nan;100248.53;4902824;29;20442;-77
2022/10/27 05:45:28;;;;;;;17.50;5.80;;;;;;;10.99;nan;100241.84;4902231;29;20727;-77
2022/10/27 05:47:58;;;;;;;9.93;4.50;;;;;;;10.92;nan;100237.00;4900935;29;20313;-76
2022/10/27 05:50:25;;;;;;;7.18;4.88;;;;;;;10.85;nan;100234.72;4902861;29;20542;-77
2022/10/27 05:52:50;;;;;;;4.55;4.15;;;;;;;10.78;nan;100228.09;4903953;29;20238;-77
2022/10/27 05:55:16;;;;;;;8.97;5.00;;;;;;;10.73;nan;100230.13;4902260;29;20257;-77
2022/10/27 05:57:41;;;;;;;5.73;4.40;;;;;;;10.69;nan;100215.44;4903988;29;20222;-76
2022/10/27 06:00:07;;;;;;;7.17;4.47;;;;;;;10.65;nan;100221.81;4902237;29;20195;-77
2022/10/27 06:02:33;;;;;;;7.28;4.30;;;;;;;10.65;nan;100219.19;4902017;29;20221;-77
2022/10/27 06:04:58;;;;;;;7.23;5.00;;;;;;;10.69;nan;100233.00;4902408;29;20194;-77
2022/10/27 06:07:23;;;;;;;8.40;4.83;;;;;;;10.72;nan;100230.19;4903090;29;20293;-77
2022/10/27 06:09:49;;;;;;;6.23;4.57;;;;;;;10.76;nan;100229.13;4900847;29;20198;-77
2022/10/27 06:12:14;;;;;;;14.00;6.67;;;;;;;10.80;nan;100226.25;4902845;29;20492;-76
2022/10/27 06:14:40;;;;;;;15.70;9.23;;;;;;;10.83;nan;100226.06;4902973;29;20412;-77
2022/10/27 06:17:05;;;;;;;21.13;10.47;;;;;;;10.88;nan;100220.53;4903590;29;20249;-77
2022/10/27 06:19:30;;;;;;;26.87;11.07;;;;;;;10.92;nan;100226.50;4900282;29;20205;-77
2022/10/27 06:21:56;;;;;;;25.30;9.50;;;;;;;10.96;nan;100225.38;4902381;29;20210;-77
2022/10/27 06:24:21;;;;;;;14.03;8.50;;;;;;;11.01;nan;100225.97;4901662;29;20198;-77
2022/10/27 06:26:47;;;;;;;15.47;7.13;;;;;;;11.02;nan;100225.91;4903629;29;20674;-76
2022/10/27 06:29:12;;;;;;;11.70;6.40;;;;;;;11.03;nan;100232.84;4900758;29;20194;-76
2022/10/27 06:31:40;;;;;;;10.43;5.80;;;;;;;11.01;nan;100233.88;4902997;29;20202;-76
2022/10/27 06:34:05;;;;;;;9.48;5.32;;;;;;;10.96;nan;100244.63;4903453;29;20743;-75
2022/10/27 06:36:31;;;;;;;9.50;7.00;;;;;;;10.96;nan;100235.91;4899727;29;20285;-75
2022/10/27 06:38:56;;;;;;;7.80;6.00;;;;;;;11.02;nan;100243.47;4900715;29;20209;-76
2022/10/27 06:41:22;;;;;;;7.90;4.53;;;;;;;11.05;nan;100259.06;4903550;29;20198;-76
2022/10/27 06:43:47;;;;;;;7.17;4.40;;;;;;;11.00;nan;100258.47;4902496;29;20202;-77
2022/10/27 06:46:12;;;;;;;6.40;5.20;;;;;;;10.95;nan;100258.72;4901949;29;20682;-76
2022/10/27 06:48:38;;;;;;;12.33;5.30;;;;;;;10.93;nan;100265.81;4902152;29;20682;-76
2022/10/27 06:51:03;;;;;;;11.70;6.77;;;;;;;10.96;nan;100268.28;4901749;29;20301;-77
2022/10/27 06:53:29;;;;;;;11.90;6.43;;;;;;;11.03;nan;100277.53;4902929;29;20336;-77
2022/10/27 06:55:54;;;;;;;11.07;5.60;;;;;;;11.07;nan;100275.56;4900539;29;20596;-76
2022/10/27 06:58:20;;;;;;;6.63;5.10;;;;;;;11.07;nan;100273.81;4901569;29;20194;-77
2022/10/27 07:00:45;;;;;;;9.33;6.10;;;;;;;11.08;nan;100274.66;4903261;29;20669;-76
2022/10/27 07:03:11;;;;;;;10.90;6.30;;;;;;;11.11;nan;100276.28;4902161;29;20652;-76
2022/10/27 07:05:37;;;;;;;7.40;5.97;;;;;;;11.16;nan;100279.50;4901173;29;20705;-76
2022/10/27 07:08:02;;;;;;;11.23;6.53;;;;;;;11.19;nan;100285.44;4900401;29;20214;-76
2022/10/27 07:10:28;;;;;;;11.50;6.10;;;;;;;11.24;nan;100285.19;4903017;29;20196;-77
2022/10/27 07:12:57;;;;;;;10.30;5.97;;;;;;;11.26;nan;100284.16;4902334;29;20207;-76
2022/10/27 07:15:25;;;;;;;9.05;7.45;;;;;;;11.32;nan;100287.38;4900964;29;20727;-78
2022/10/27 07:17:58;;;;;;;12.15;7.65;;;;;;;11.41;nan;100300.03;4901970;29;20187;-76
2022/10/27 07:20:23;;;;;;;8.95;7.72;;;;;;;11.50;nan;100299.50;4902701;29;20214;-76
2022/10/27 07:22:49;;;;;;;12.90;6.80;;;;;;;11.59;nan;100309.50;4902163;29;20692;-76
2022/10/27 07:25:14;;;;;;;15.80;7.83;;;;;;;11.68;nan;100306.34;4899924;29;20218;-77
2022/10/27 07:27:39;;;;;;;8.43;5.77;;;;;;;11.77;nan;100304.97;4902090;29;20218;-76
2022/10/27 07:30:05;;;;;;;6.83;5.33;;;;;;;11.88;nan;100305.25;4901821;29;20641;-76
2022/10/27 07:32:31;;;;;;;6.60;5.93;;;;;;;12.01;nan;100304.53;4898253;29;20214;-77
2022/10/27 07:34:56;;;;;;;8.33;6.03;;;;;;;12.13;nan;100296.75;4902806;29;20958;-76
2022/10/27 07:37:21;;;;;;;8.97;6.20;;;;;;;12.26;nan;100303.91;4901007;29;20198;-77
2022/10/27 07:39:48;;;;;;;9.53;5.93;;;;;;;12.39;nan;100307.50;4902723;29;20190;-77
2022/10/27 07:42:14;;;;;;;11.63;5.68;;;;;;;12.51;nan;100314.69;4901502;29;20504;-77
2022/10/27 07:44:40;;;;;;;5.82;5.28;;;;;;;12.68;nan;100302.28;4900145;29;20296;-77
2022/10/27 07:47:05;;;;;;;7.20;5.77;;;;;;;12.82;nan;100302.25;4900375;29;20226;-76
2022/10/27 07:49:30;;;;;;;7.10;5.13;;;;;;;12.96;nan;100307.56;4900785;29;20270;-77
2022/10/27 07:51:56;;;;;;;9.60;4.60;;;;;;;13.11;nan;100302.25;4899387;29;20221;-77
2022/10/27 07:54:21;;;;;;;5.80;5.20;;;;;;;13.22;nan;100295.34;4901400;29;20221;-77
2022/10/27 07:56:48;;;;;;;11.83;5.33;;;;;;;13.35;nan;100295.44;4900588;29;20222;-76
2022/10/27 07:59:13;;;;;;;15.27;6.53;;;;;;;13.48;nan;100298.16;4901158;29;20273;-77
2022/10/27 08:01:39;;;;;;;7.10;4.70;;;;;;;13.60;nan;100299.97;4901707;29;20305;-77
2022/10/27 08:04:04;;;;;;;12.37;5.50;;;;;;;13.74;nan;100306.97;4901165;29;20285;-77
2022/10/27 08:06:30;;;;;;;10.07;4.70;;;;;;;13.88;nan;100306.06;4900462;29;20245;-78
2022/10/27 08:08:55;;;;;;;9.50;4.80;;;;;;;14.01;nan;100300.81;4901191;29;20660;-77
2022/10/27 08:11:22;;;;;;;9.10;6.00;;;;;;;14.12;nan;100300.94;4898765;29;20289;-77
2022/10/27 08:13:48;;;;;;;7.75;5.40;;;;;;;14.25;nan;100311.53;4902669;29;20206;-77
2022/10/27 08:16:13;;;;;;;11.00;6.23;;;;;;;14.31;nan;100313.75;4900139;29;20187;-77
2022/10/27 08:18:39;;;;;;;7.90;7.07;;;;;;;14.39;nan;100312.31;4900844;29;20612;-77
2022/10/27 08:21:04;;;;;;;12.00;8.33;;;;;;;14.76;nan;100317.72;4902697;29;20221;-78
2022/10/27 08:23:30;;;;;;;11.53;7.83;;;;;;;15.68;nan;100308.50;4900891;29;20217;-78
2022/10/27 08:25:56;;;;;;;15.10;9.60;;;;;;;16.91;nan;100295.69;4900442;29;20223;-78
2022/10/27 08:28:23;;;;;;;12.33;7.50;;;;;;;18.12;nan;100281.34;4903649;29;20799;-78
2022/10/27 08:30:50;;;;;;;18.67;8.25;;;;;;;19.36;nan;100282.16;4903156;29;20631;-78
2022/10/27 08:33:15;;;;;;;7.97;6.00;;;;;;;;;;4900744;29;20343;-78
2022/10/27 08:35:41;;;;;;;9.17;5.87;;;;;;;21.46;nan;100278.47;4900800;29;20674;-78
2022/10/27 08:38:13;;;;;;;7.03;5.33;;;;;;;22.39;nan;100270.91;4902019;29;20836;-78
2022/10/27 08:40:59;;;;;;;7.93;4.13;;;;;;;23.20;nan;100277.66;4902250;29;20226;-77
2022/10/27 08:43:55;;;;;;;4.60;3.70;;;;;;;23.80;nan;100272.09;4903215;29;20437;-77
2022/10/27 08:46:51;;;;;;;5.93;4.40;;;;;;;24.53;nan;100273.06;4904896;29;20839;-77
2022/10/27 08:49:37;;;;;;;4.50;3.70;;;;;;;25.07;nan;100270.50;4894098;29;20442;-79
2022/10/27 08:52:05;;;;;;;8.00;4.03;;;;;;;25.51;nan;100269.09;4908385;29;20419;-80
2022/10/27 08:54:31;;;;;;;8.80;5.07;;;;;;;26.11;nan;100267.47;4907114;29;20732;-79
2022/10/27 08:56:58;;;;;;;5.83;5.23;;;;;;;26.30;nan;100272.31;4906424;29;20282;-76
2022/10/27 08:59:26;;;;;;;4.70;3.57;;;;;;;26.59;nan;100266.16;4902039;29;20301;-77
2022/10/27 09:02:00;;;;;;;5.20;3.60;;;;;;;26.92;nan;100260.38;4905562;29;20473;-77
2022/10/27 09:04:53;;;;;;;6.47;4.33;;;;;;;27.06;nan;100256.81;4905213;29;20472;-77
2022/10/27 09:07:39;;;;;;;8.97;4.27;;;;;;;27.29;nan;100255.88;4904139;29;21054;-76
2022/10/27 09:10:27;;;;;;;8.57;4.50;;;;;;;27.52;nan;100253.84;4904549;29;20457;-77
2022/10/27 09:13:14;;;;;;;8.17;4.70;;;;;;;27.66;nan;100241.31;4898974;29;20437;-77
2022/10/27 09:15:50;;;;;;;7.87;5.77;;;;;;;27.50;nan;100241.56;4906178;29;20547;-75
2022/10/27 09:18:26;;;;;;;6.77;5.43;;;;;;;27.24;nan;100245.63;4904525;29;20507;-76
2022/10/27 09:20:55;;;;;;;6.73;4.93;;;;;;;26.97;nan;100241.75;4905205;29;20975;-77
2022/10/27 09:23:32;;;;;;;5.13;3.80;;;;;;;26.58;nan;100248.31;4903267;29;20444;-74
2022/10/27 09:25:58;;;;;;;5.70;4.30;;;;;;;26.09;nan;100248.81;4905482;29;20442;-77
2022/10/27 09:28:23;;;;;;;9.30;4.10;;;;;;;25.66;nan;100245.78;4901436;29;20591;-76
2022/10/27 09:30:51;;;;;;;5.13;4.00;;;;;;;25.23;nan;100248.09;4905780;29;20550;-75
2022/10/27 09:33:26;;;;;;;8.38;3.95;;;;;;;24.89;nan;100245.72;4903485;29;20446;-77
2022/10/27 09:35:52;;;;;;;8.23;4.67;;;;;;;24.51;nan;100243.66;4903771;29;20206;-75
2022/10/27 09:38:22;;;;;;;5.40;4.13;;;;;;;24.07;nan;100252.13;4905892;29;20417;-77
2022/10/27 09:40:48;;;;;;;5.13;3.47;;;;;;;23.50;nan;100240.53;4908139;29;20505;-77
2022/10/27 09:43:14;;;;;;;4.33;3.93;;;;;;;23.02;nan;100242.94;4908532;29;20429;-76
2022/10/27 09:45:41;;;;;;;7.53;3.30;;;;;;;22.66;nan;100240.44;4903824;29;20422;-77
2022/10/27 09:48:17;;;;;;;8.97;4.50;;;;;;;22.39;nan;100244.13;4906661;29;20724;-75
2022/10/27 09:50:52;;;;;;;8.30;4.00;;;;;;;22.13;nan;100245.94;4908177;29;20409;-78
2022/10/27 09:53:36;;;;;;;38.37;8.23;;;;;;;21.97;nan;100252.84;4905743;29;20811;-77
2022/10/27 09:56:03;;;;;;;6.67;4.67;;;;;;;21.90;nan;100251.81;4904017;29;20492;-77
2022/10/27 09:58:28;;;;;;;8.27;4.37;;;;;;;21.89;nan;100247.44;4907161;29;20481;-77
2022/10/27 10:00:56;;;;;;;8.17;3.83;;;;;;;21.92;nan;100252.47;4908348;29;20443;-77
2022/10/27 10:03:22;;;;;;;9.00;4.50;;;;;;;21.91;nan;100256.16;4906745;29;20239;-77
2022/10/27 10:05:59;;;;;;;9.33;4.27;;;;;;;21.93;nan;100242.59;4905838;29;20511;-78
2022/10/27 10:08:30;;;;;;;6.90;3.90;;;;;;;22.01;nan;100240.03;4905700;29;20234;-78
2022/10/27 10:10:59;;;;;;;3.93;2.80;;;;;;;22.01;nan;100243.53;4906548;29;20466;-78
2022/10/27 10:13:26;;;;;;;16.33;5.00;;;;;;;22.02;nan;100249.72;4906774;29;20932;-77
2022/10/27 10:16:09;;;;;;;9.13;3.50;;;;;;;22.04;nan;100239.69;4902921;29;20455;-79
2022/10/27 10:18:37;;;;;;;5.20;2.97;;;;;;;21.94;nan;100246.97;4905220;29;20459;-78
2022/10/27 10:21:07;;;;;;;9.90;3.60;;;;;;;21.83;nan;100243.53;4905805;29;20839;-77
2022/10/27 10:23:48;;;;;;;7.10;4.10;;;;;;;21.81;nan;100234.81;4904189;29;20522;-77
2022/10/27 10:26:19;;;;;;;18.40;5.33;;;;;;;21.78;nan;100243.16;4907182;29;21101;-82
2022/10/27 10:28:45;;;;;;;8.10;3.93;;;;;;;21.71;nan;100236.78;4907657;29;20416;-78
2022/10/27 10:31:13;;;;;;;5.13;3.00;;;;;;;21.65;nan;100237.38;4905710;29;20493;-77
2022/10/27 10:33:45;;;;;;;6.80;2.97;;;;;;;21.59;nan;100235.31;4906509;29;20533;-77
2022/10/27 10:36:38;;;;;;;4.73;3.00;;;;;;;21.56;nan;100233.78;4905912;29;20438;-81
2022/10/27 10:39:23;;;;;;;7.03;3.20;;;;;;;21.57;nan;100237.28;4900143;29;20475;-77
2022/10/27 10:42:17;;;;;;;21.20;4.93;;;;;;;21.62;nan;100227.00;4906135;29;20481;-80
2022/10/27 10:44:43;;;;;;;6.07;3.23;;;;;;;21.64;nan;100222.34;4905826;29;20454;-78
2022/10/27 10:47:29;;;;;;;5.37;3.30;;;;;;;21.63;nan;100221.50;4905588;29;20517;-79
2022/10/27 10:50:01;;;;;;;9.47;3.23;;;;;;;21.62;nan;100217.13;4906005;29;20444;-77
2022/10/27 10:52:36;;;;;;;34.33;7.47;;;;;;;21.58;nan;100212.25;4904244;29;20511;-78
2022/10/27 10:55:24;;;;;;;10.47;3.30;;;;;;;21.57;nan;100215.91;4903208;29;20437;-81
2022/10/27 10:57:53;;;;;;;13.13;5.40;;;;;;;21.52;nan;100213.72;4859488;29;20991;-78
2022/10/27 11:00:20;;;;;;;6.27;3.57;;;;;;;21.52;nan;100210.19;4867163;29;20437;-78
2022/10/27 11:02:53;;;;;;;5.50;2.90;;;;;;;21.54;nan;100197.50;4868249;29;20474;-82
2022/10/27 11:05:27;;;;;;;5.70;4.10;;;;;;;21.56;nan;100192.84;4869204;29;20968;-77
2022/10/27 11:07:53;;;;;;;6.20;2.80;;;;;;;21.53;nan;100190.50;4870491;29;20495;-77
2022/10/27 11:10:21;;;;;;;16.23;4.93;;;;;;;21.56;nan;100179.50;4871294;29;20905;-79
2022/10/27 11:12:53;;;;;;;4.20;2.70;;;;;;;21.59;nan;100182.69;4869560;29;20468;-78
2022/10/27 11:15:37;;;;;;;6.00;2.83;;;;;;;21.61;nan;100177.19;4868923;29;20540;-81
2022/10/27 11:18:19;;;;;;;3.27;2.70;;;;;;;21.63;nan;100178.72;4868741;29;20790;-82
2022/10/27 11:20:48;;;;;;;5.17;2.70;;;;;;;21.63;nan;100175.22;4864557;29;20515;-81
2022/10/27 11:23:22;;;;;;;6.87;4.20;;;;;;;21.55;nan;100178.66;4864978;29;20847;-81
2022/10/27 11:25:48;;;;;;;2.97;2.67;;;;;;;21.52;nan;100196.81;4869076;29;20467;-77
2022/10/27 11:28:41;;;;;;;8.03;3.80;;;;;;;21.51;nan;100187.97;4869574;29;21106;-79
2022/10/27 11:31:30;;;;;;;6.23;2.80;;;;;;;21.49;nan;100181.94;4866072;29;20540;-78
2022/10/27 11:34:15;;;;;;;5.30;3.50;;;;;;;21.51;nan;100173.75;4914062;23;21068;-75
2022/10/27 11:36:48;;;;;;;6.13;3.50;;;;;;;21.51;nan;100176.44;4909470;28;20439;-75
2022/10/27 11:39:22;;;;;;;4.40;2.80;;;;;;;21.50;nan;100172.94;4918066;29;20449;-75
2022/10/27 11:41:50;;;;;;;5.50;3.20;;;;;;;21.54;nan;100157.41;4921177;29;20450;-75
2022/10/27 11:44:34;;;;;;;6.30;2.93;;;;;;;21.57;nan;100154.44;4920987;29;20494;-75
2022/10/27 11:47:31;;;;;;;7.53;3.47;;;;;;;21.63;nan;100156.50;4921732;29;20480;-75
2022/10/27 11:50:05;;;;;;;6.67;4.17;;;;;;;21.64;nan;100155.50;4921279;29;20434;-75
2022/10/27 11:52:41;;;;;;;16.60;6.10;;;;;;;21.70;nan;100157.53;4920113;29;20489;-75